createdAt,value
2018-03-18T00:03:15.549Z,7.63
2018-03-18T00:06:38.886Z,8.27
2018-03-18T00:10:02.954Z,6.43
2018-03-18T00:13:27.028Z,8.13
2018-03-18T00:16:50.335Z,8.63
2018-03-18T00:20:13.668Z,8.47
2018-03-18T00:23:36.990Z,8.57
2018-03-18T00:27:00.332Z,9.07
2018-03-18T00:30:24.413Z,8.63
2018-03-18T00:33:48.527Z,8.43
2018-03-18T00:37:11.921Z,8.97
2018-03-18T00:40:36.061Z,8.43
2018-03-18T00:44:00.149Z,9.13
2018-03-18T00:47:24.326Z,9.33
2018-03-18T00:50:48.401Z,9.13
2018-03-18T00:54:11.743Z,8.97
2018-03-18T00:57:36.005Z,8.83
2018-03-18T01:00:59.300Z,9.33
2018-03-18T01:04:23.378Z,9.10
2018-03-18T01:07:47.503Z,9.80
2018-03-18T01:11:11.045Z,9.23
2018-03-18T01:14:34.430Z,9.77
2018-03-18T01:17:58.590Z,10.40
2018-03-18T01:21:21.951Z,10.17
2018-03-18T01:24:45.315Z,10.93
2018-03-18T01:28:09.485Z,11.00
2018-03-18T01:31:32.803Z,11.37
2018-03-18T01:34:56.189Z,11.40
2018-03-18T01:38:20.253Z,12.37
2018-03-18T01:41:44.469Z,12.00
2018-03-18T01:45:08.599Z,8.30
2018-03-18T01:48:32.898Z,13.10
2018-03-18T01:51:56.978Z,13.40
2018-03-18T01:55:21.254Z,13.50
2018-03-18T01:58:45.381Z,13.80
2018-03-18T02:02:08.704Z,13.00
2018-03-18T02:05:32.051Z,14.13
2018-03-18T02:08:56.145Z,15.30
2018-03-18T02:12:20.241Z,14.47
2018-03-18T02:15:43.550Z,14.13
2018-03-18T02:19:06.871Z,16.07
2018-03-18T02:22:30.963Z,14.97
2018-03-18T02:25:54.261Z,14.73
2018-03-18T02:29:18.331Z,15.47
2018-03-18T02:32:41.669Z,15.37
2018-03-18T02:36:05.754Z,15.90
2018-03-18T02:39:29.939Z,15.87
2018-03-18T02:42:53.246Z,16.40
2018-03-18T02:46:16.582Z,16.33
2018-03-18T02:49:40.698Z,16.93
2018-03-18T02:53:04.099Z,17.33
2018-03-18T02:56:28.157Z,16.57
2018-03-18T02:59:51.486Z,17.57
2018-03-18T03:03:14.810Z,18.33
2018-03-18T03:06:38.908Z,16.70
2018-03-18T03:10:02.971Z,17.13
2018-03-18T03:13:26.272Z,16.77
2018-03-18T03:16:50.347Z,17.03
2018-03-18T03:20:14.460Z,19.73
2018-03-18T03:23:38.551Z,18.87
2018-03-18T03:27:01.870Z,19.53
2018-03-18T03:30:26.525Z,16.53
2018-03-18T03:33:49.908Z,16.53
2018-03-18T03:37:14.026Z,16.70
2018-03-18T03:40:37.338Z,18.97
2018-03-18T03:44:00.662Z,18.47
2018-03-18T03:47:23.999Z,13.77
2018-03-18T03:50:48.080Z,17.60
2018-03-18T03:54:11.398Z,20.53
2018-03-18T03:57:34.713Z,17.47
2018-03-18T04:00:58.116Z,17.67
2018-03-18T04:04:22.185Z,18.40
2018-03-18T04:07:46.299Z,18.00
2018-03-18T04:11:09.692Z,19.27
2018-03-18T04:14:33.003Z,17.87
2018-03-18T04:17:56.382Z,19.27
2018-03-18T04:21:19.688Z,20.70
2018-03-18T04:24:43.779Z,19.13
2018-03-18T04:28:07.102Z,19.47
2018-03-18T04:31:30.416Z,19.17
2018-03-18T04:34:53.752Z,19.97
2018-03-18T04:38:17.840Z,18.97
2018-03-18T04:41:41.922Z,20.20
2018-03-18T04:45:06.042Z,19.97
2018-03-18T04:48:29.426Z,19.97
2018-03-18T04:51:52.739Z,21.13
2018-03-18T04:55:16.119Z,19.83
2018-03-18T04:58:40.184Z,20.87
2018-03-18T05:02:03.485Z,21.73
2018-03-18T05:05:27.532Z,20.53
2018-03-18T05:08:50.835Z,21.30
2018-03-18T05:12:14.899Z,21.13
2018-03-18T05:15:38.247Z,21.27
2018-03-18T05:19:02.383Z,19.73
2018-03-18T05:22:26.432Z,20.17
2018-03-18T05:25:49.746Z,20.50
2018-03-18T05:29:13.846Z,19.57
2018-03-18T05:32:37.140Z,21.20
2018-03-18T05:36:01.201Z,21.23
2018-03-18T05:39:24.589Z,20.40
2018-03-18T05:42:48.736Z,22.67
2018-03-18T05:46:12.827Z,21.60
2018-03-18T05:49:36.913Z,20.47
2018-03-18T05:53:01.013Z,20.80
2018-03-18T05:56:24.372Z,21.53
2018-03-18T05:59:48.380Z,21.43
2018-03-18T06:03:11.693Z,20.33
2018-03-18T06:06:34.987Z,19.67
2018-03-18T06:09:59.091Z,18.67
2018-03-18T06:13:23.140Z,21.33
2018-03-18T06:16:46.484Z,19.20
2018-03-18T06:20:10.569Z,21.90
2018-03-18T06:23:34.684Z,21.17
2018-03-18T06:26:58.256Z,21.90
2018-03-18T06:30:21.652Z,19.60
2018-03-18T06:33:45.763Z,18.87
2018-03-18T06:37:09.137Z,21.47
2018-03-18T06:40:32.550Z,19.07
2018-03-18T06:43:55.917Z,20.77
2018-03-18T06:47:19.424Z,21.83
2018-03-18T06:50:43.585Z,20.93
2018-03-18T06:54:07.000Z,19.50
2018-03-18T06:57:31.306Z,22.37
2018-03-18T07:00:55.003Z,21.53
2018-03-18T07:04:18.356Z,21.60
2018-03-18T07:07:41.910Z,19.53
2018-03-18T07:11:06.014Z,23.23
2018-03-18T07:14:29.355Z,21.23
2018-03-18T07:17:53.437Z,18.77
2018-03-18T07:21:17.511Z,23.70
2018-03-18T07:24:40.903Z,23.27
2018-03-18T07:28:05.129Z,21.07
2018-03-18T07:31:29.273Z,22.20
2018-03-18T07:34:53.389Z,22.47
2018-03-18T07:38:19.056Z,21.93
2018-03-18T07:41:42.454Z,21.33
2018-03-18T07:45:06.553Z,22.73
2018-03-18T07:48:29.902Z,21.73
2018-03-18T07:51:53.278Z,22.77
2018-03-18T07:55:17.442Z,24.00
2018-03-18T07:58:43.057Z,22.23
2018-03-18T08:02:07.149Z,22.13
2018-03-18T08:05:31.259Z,23.30
2018-03-18T08:08:55.380Z,22.17
2018-03-18T08:12:18.677Z,22.80
2018-03-18T08:15:42.805Z,16.17
2018-03-18T08:19:06.210Z,21.43
2018-03-18T08:22:30.295Z,22.40
2018-03-18T08:25:53.622Z,21.90
2018-03-18T08:29:16.965Z,23.77
2018-03-18T08:32:41.126Z,21.97
2018-03-18T08:40:37.501Z,20.63
2018-03-18T08:44:00.888Z,19.07
2018-03-18T08:47:24.246Z,19.43
2018-03-18T08:50:49.636Z,20.43
2018-03-18T08:54:15.623Z,22.37
2018-03-18T08:57:39.912Z,22.13
2018-03-18T09:01:04.272Z,19.23
2018-03-18T09:04:28.434Z,23.40
2018-03-18T09:07:52.098Z,21.27
2018-03-18T09:11:16.466Z,22.17
2018-03-18T09:14:39.833Z,23.13
2018-03-18T09:18:03.140Z,21.47
2018-03-18T09:21:28.685Z,20.43
2018-03-18T09:24:52.072Z,20.90
2018-03-18T09:28:15.385Z,22.00
2018-03-18T09:31:38.696Z,22.03
2018-03-18T09:35:02.762Z,18.97
2018-03-18T09:38:26.188Z,21.33
2018-03-18T09:41:49.545Z,22.60
2018-03-18T09:45:12.905Z,20.90
2018-03-18T09:48:36.328Z,22.87
2018-03-18T09:51:59.688Z,23.40
2018-03-18T09:55:23.109Z,18.27
2018-03-18T09:58:46.453Z,20.03
2018-03-18T10:02:09.763Z,19.87
2018-03-18T10:05:33.161Z,22.90
2018-03-18T10:08:56.608Z,19.13
2018-03-18T10:12:22.548Z,22.87
2018-03-18T10:15:47.379Z,20.90
2018-03-18T10:19:11.029Z,18.73
2018-03-18T10:22:39.635Z,21.43
2018-03-18T10:26:04.004Z,21.77
2018-03-18T10:29:30.531Z,19.80
2018-03-18T10:32:55.016Z,23.67
2018-03-18T10:36:18.478Z,24.10
2018-03-18T10:39:42.094Z,22.13
2018-03-18T10:43:06.237Z,19.40
2018-03-18T10:46:29.700Z,21.80
2018-03-18T10:49:53.427Z,22.67
2018-03-18T10:53:17.661Z,23.40
2018-03-18T10:56:41.741Z,22.30
2018-03-18T11:00:05.818Z,21.87
2018-03-18T11:03:29.937Z,18.63
2018-03-18T11:06:53.233Z,21.03
2018-03-18T11:10:16.534Z,21.93
2018-03-18T11:13:39.886Z,20.47
2018-03-18T11:17:03.213Z,19.37
2018-03-18T11:20:26.575Z,14.30
2018-03-18T11:23:49.934Z,22.53
2018-03-18T11:27:14.713Z,21.60
2018-03-18T11:30:38.795Z,20.20
2018-03-18T11:34:04.100Z,21.87
2018-03-18T11:37:37.361Z,20.70
2018-03-18T11:41:00.769Z,21.87
2018-03-18T11:44:25.261Z,22.57
2018-03-18T11:47:48.741Z,22.63
2018-03-18T11:51:13.926Z,22.70
2018-03-18T11:54:38.462Z,22.17
2018-03-18T11:58:01.808Z,19.23
2018-03-18T12:01:25.195Z,24.07
2018-03-18T12:04:49.249Z,21.30
2018-03-18T12:08:30.209Z,22.60
2018-03-18T12:11:53.609Z,22.10
2018-03-18T12:15:17.098Z,21.70
2018-03-18T12:18:40.492Z,21.77
2018-03-18T12:22:04.606Z,21.67
2018-03-18T12:25:28.053Z,21.93
2018-03-18T12:28:52.342Z,22.53
2018-03-18T12:35:46.661Z,21.53
2018-03-18T12:39:11.134Z,23.03
2018-03-18T12:42:54.120Z,23.57
2018-03-18T12:46:17.609Z,23.40
2018-03-18T12:49:40.933Z,21.77
2018-03-18T12:53:05.304Z,23.87
2018-03-18T12:56:28.637Z,23.43
2018-03-18T12:59:51.939Z,23.43
2018-03-18T13:03:15.236Z,21.60
2018-03-18T13:06:38.601Z,23.13
2018-03-18T13:10:01.918Z,23.07
2018-03-18T13:13:25.251Z,23.27
2018-03-18T13:16:48.608Z,25.40
2018-03-18T13:20:11.927Z,24.50
2018-03-18T13:23:35.420Z,22.90
2018-03-18T13:26:58.704Z,23.87
2018-03-18T13:30:22.053Z,23.80
2018-03-18T13:33:46.275Z,23.30
2018-03-18T13:37:10.147Z,23.00
2018-03-18T13:40:33.558Z,24.73
2018-03-18T13:43:58.577Z,23.97
2018-03-18T13:47:22.784Z,23.97
2018-03-18T13:50:46.163Z,25.20
2018-03-18T13:54:10.342Z,24.00
2018-03-18T13:57:33.749Z,19.40
2018-03-18T14:00:58.022Z,23.03
2018-03-18T14:04:21.433Z,25.43
2018-03-18T14:11:14.565Z,23.30
2018-03-18T14:14:37.991Z,23.30
2018-03-18T14:18:01.406Z,24.70
2018-03-18T14:21:25.251Z,23.07
2018-03-18T14:24:51.708Z,23.53
2018-03-18T14:28:16.531Z,24.50
2018-03-18T14:31:40.792Z,24.53
2018-03-18T14:35:04.154Z,22.43
2018-03-18T14:38:27.685Z,25.80
2018-03-18T14:41:51.123Z,24.60
2018-03-18T14:45:15.249Z,24.87
2018-03-18T14:48:40.103Z,23.97
2018-03-18T14:52:04.317Z,24.23
2018-03-18T14:55:29.757Z,25.10
2018-03-18T14:58:53.085Z,24.50
2018-03-18T15:02:17.961Z,25.10
2018-03-18T15:05:42.043Z,24.20
2018-03-18T15:09:06.233Z,24.30
2018-03-18T15:12:29.651Z,22.43
2018-03-18T15:15:57.625Z,24.77
2018-03-18T15:19:21.035Z,23.37
2018-03-18T15:22:46.181Z,24.93
2018-03-18T15:26:09.666Z,22.83
2018-03-18T15:29:33.813Z,25.40
2018-03-18T15:32:57.300Z,23.60
2018-03-18T15:36:22.250Z,22.87
2018-03-18T15:39:45.768Z,24.63
2018-03-18T15:43:09.416Z,24.07
2018-03-18T15:46:32.958Z,24.17
2018-03-18T15:50:00.543Z,23.40
2018-03-18T15:53:24.095Z,24.60
2018-03-18T15:56:49.121Z,24.07
2018-03-18T16:00:15.103Z,25.07
2018-03-18T16:03:39.651Z,23.00
2018-03-18T16:07:03.105Z,23.77
2018-03-18T16:10:26.739Z,23.60
2018-03-18T16:13:50.293Z,22.77
2018-03-18T16:17:13.651Z,24.47
2018-03-18T16:20:37.030Z,24.93
2018-03-18T16:24:01.537Z,23.67
2018-03-18T16:27:24.943Z,24.83
2018-03-18T16:34:50.027Z,25.87
2018-03-18T16:38:14.232Z,26.60
2018-03-18T16:41:39.343Z,24.87
2018-03-18T16:45:02.838Z,25.83
2018-03-18T16:48:26.296Z,25.60
2018-03-18T16:51:51.644Z,24.33
2018-03-18T16:55:15.208Z,26.40
2018-03-18T16:58:38.646Z,24.53
2018-03-18T17:02:02.265Z,26.03
2018-03-18T17:05:25.829Z,26.23
2018-03-18T17:08:50.092Z,24.33
2018-03-18T17:12:13.400Z,25.53
2018-03-18T17:15:36.969Z,24.23
2018-03-18T17:19:01.290Z,26.03
2018-03-18T17:22:24.648Z,24.73
2018-03-18T17:25:48.100Z,26.27
2018-03-18T17:29:12.247Z,25.50
2018-03-18T17:32:37.832Z,27.73
2018-03-18T17:36:01.173Z,26.60
2018-03-18T17:39:25.309Z,24.50
2018-03-18T17:42:49.423Z,21.73
2018-03-18T17:46:30.543Z,23.83
2018-03-18T17:50:11.581Z,25.27
2018-03-18T17:53:53.362Z,25.93
2018-03-18T17:57:16.753Z,25.03
2018-03-18T18:00:40.168Z,23.40
2018-03-18T18:04:06.642Z,25.40
2018-03-18T18:07:31.207Z,25.47
2018-03-18T18:10:55.267Z,25.97
2018-03-18T18:14:19.378Z,26.33
2018-03-18T18:17:42.702Z,27.00
2018-03-18T18:21:06.031Z,24.47
2018-03-18T18:24:30.233Z,24.30
2018-03-18T18:27:54.349Z,25.43
2018-03-18T18:31:17.694Z,24.63
2018-03-18T18:34:41.037Z,23.97
2018-03-18T18:38:05.352Z,26.03
2018-03-18T18:41:28.677Z,23.13
2018-03-18T18:44:51.999Z,19.17
2018-03-18T18:48:15.341Z,25.37
2018-03-18T18:51:39.426Z,22.97
2018-03-18T18:55:03.605Z,22.43
2018-03-18T18:58:27.821Z,23.83
2018-03-18T19:01:52.568Z,23.87
2018-03-18T19:05:16.020Z,23.57
2018-03-18T19:08:39.468Z,23.97
2018-03-18T19:12:03.498Z,24.70
2018-03-18T19:15:27.813Z,23.87
2018-03-18T19:18:52.165Z,26.93
2018-03-18T19:22:16.536Z,23.53
2018-03-18T19:25:41.580Z,23.60
2018-03-18T19:29:04.910Z,24.53
2018-03-18T19:32:28.335Z,25.30
2018-03-18T19:35:51.774Z,23.63
2018-03-18T19:39:15.908Z,24.93
2018-03-18T19:42:40.019Z,23.27
2018-03-18T19:46:04.132Z,22.20
2018-03-18T19:49:27.449Z,24.20
2018-03-18T19:52:50.882Z,22.87
2018-03-18T19:56:14.290Z,24.27
2018-03-18T19:59:37.682Z,24.73
2018-03-18T20:03:01.829Z,22.87
2018-03-18T20:06:25.949Z,23.83
2018-03-18T20:09:49.334Z,24.37
2018-03-18T20:13:12.706Z,25.10
2018-03-18T20:16:36.805Z,23.03
2018-03-18T20:20:00.193Z,23.67
2018-03-18T20:23:34.564Z,25.20
2018-03-18T20:26:59.181Z,23.87
2018-03-18T20:30:23.012Z,24.13
2018-03-18T20:33:48.486Z,23.47
2018-03-18T20:37:15.616Z,21.70
2018-03-18T20:40:39.691Z,21.93
2018-03-18T20:44:03.060Z,25.23
2018-03-18T20:47:27.137Z,24.50
2018-03-18T20:50:51.248Z,23.20
2018-03-18T20:54:14.620Z,23.73
2018-03-18T20:57:37.927Z,24.10
2018-03-18T21:01:02.114Z,24.40
2018-03-18T21:04:25.452Z,23.17
2018-03-18T21:07:49.616Z,24.13
2018-03-18T21:11:18.703Z,21.60
2018-03-18T21:14:43.554Z,23.30
2018-03-18T21:18:06.913Z,21.83
2018-03-18T21:21:30.590Z,24.47
2018-03-18T21:24:54.680Z,23.27
2018-03-18T21:28:18.832Z,23.87
2018-03-18T21:31:42.201Z,24.50
2018-03-18T21:35:06.356Z,22.93
2018-03-18T21:38:30.511Z,23.07
2018-03-18T21:41:54.586Z,23.47
2018-03-18T21:45:18.734Z,22.00
2018-03-18T21:48:42.093Z,22.40
2018-03-18T21:52:05.470Z,23.90
2018-03-18T21:55:29.584Z,24.40
2018-03-18T21:58:52.866Z,22.10
2018-03-18T22:02:16.161Z,24.33
2018-03-18T22:05:39.601Z,24.10
2018-03-18T22:09:02.979Z,24.67
2018-03-18T22:12:26.331Z,22.40
2018-03-18T22:15:50.402Z,22.13
2018-03-18T22:19:13.781Z,23.60
2018-03-18T22:22:37.970Z,24.63
2018-03-18T22:26:01.273Z,22.13
2018-03-18T22:29:26.810Z,23.80
2018-03-18T22:32:50.241Z,23.27
2018-03-18T22:36:13.602Z,23.93
2018-03-18T22:39:36.965Z,23.97
2018-03-18T22:43:01.052Z,22.17
2018-03-18T22:46:25.135Z,22.33
2018-03-18T22:49:49.230Z,23.27
2018-03-18T22:53:13.375Z,22.27
2018-03-18T22:56:36.723Z,23.40
2018-03-18T23:00:00.147Z,23.33
2018-03-18T23:11:18.116Z,21.23
2018-03-18T23:14:41.508Z,21.60
2018-03-18T23:18:05.681Z,22.47
2018-03-18T23:21:28.991Z,20.77
2018-03-18T23:24:52.364Z,21.60
2018-03-18T23:28:16.495Z,22.10
2018-03-18T23:39:33.670Z,20.93
2018-03-18T23:42:56.968Z,22.80
2018-03-18T23:46:20.338Z,21.97
2018-03-18T23:49:43.685Z,22.83
2018-03-18T23:53:08.008Z,22.03
2018-03-18T23:56:32.062Z,21.53
2018-03-18T23:59:55.368Z,22.13
